sensor_id;sensor_type;location;lat;lon;timestamp;P1;durP1;ratioP1;P2;durP2;ratioP2
39880;SDS011;25554;44.954;10.068;2023-07-13T00:02:16;6.10;;;1.80;;
39880;SDS011;25554;44.954;10.068;2023-07-13T00:07:11;5.20;;;1.70;;
39880;SDS011;25554;44.954;10.068;2023-07-13T00:09:40;4.65;;;1.20;;
39880;SDS011;25554;44.954;10.068;2023-07-13T00:12:21;5.97;;;1.48;;
39880;SDS011;25554;44.954;10.068;2023-07-13T00:14:49;2.75;;;1.45;;
39880;SDS011;25554;44.954;10.068;2023-07-13T00:19:42;3.80;;;1.50;;
39880;SDS011;25554;44.954;10.068;2023-07-13T00:24:35;8.68;;;1.52;;
39880;SDS011;25554;44.954;10.068;2023-07-13T00:27:01;4.60;;;1.30;;
39880;SDS011;25554;44.954;10.068;2023-07-13T00:29:28;4.07;;;1.38;;
39880;SDS011;25554;44.954;10.068;2023-07-13T00:31:56;2.67;;;1.20;;
39880;SDS011;25554;44.954;10.068;2023-07-13T00:34:23;4.38;;;1.50;;
39880;SDS011;25554;44.954;10.068;2023-07-13T00:36:50;4.50;;;1.30;;
39880;SDS011;25554;44.954;10.068;2023-07-13T00:39:16;2.47;;;1.13;;
39880;SDS011;25554;44.954;10.068;2023-07-13T00:41:42;3.05;;;1.40;;
39880;SDS011;25554;44.954;10.068;2023-07-13T00:44:17;2.60;;;1.35;;
39880;SDS011;25554;44.954;10.068;2023-07-13T00:46:44;1.67;;;1.05;;
39880;SDS011;25554;44.954;10.068;2023-07-13T00:49:12;4.25;;;1.88;;
39880;SDS011;25554;44.954;10.068;2023-07-13T00:54:22;2.95;;;1.45;;
39880;SDS011;25554;44.954;10.068;2023-07-13T00:57:17;3.13;;;1.50;;
39880;SDS011;25554;44.954;10.068;2023-07-13T00:59:47;4.47;;;1.40;;
39880;SDS011;25554;44.954;10.068;2023-07-13T01:02:17;2.45;;;1.35;;
39880;SDS011;25554;44.954;10.068;2023-07-13T01:04:44;4.05;;;1.65;;
39880;SDS011;25554;44.954;10.068;2023-07-13T01:12:04;3.25;;;1.73;;
39880;SDS011;25554;44.954;10.068;2023-07-13T01:14:30;5.80;;;2.13;;
39880;SDS011;25554;44.954;10.068;2023-07-13T01:16:57;7.03;;;2.42;;
39880;SDS011;25554;44.954;10.068;2023-07-13T01:22:02;4.60;;;2.37;;
39880;SDS011;25554;44.954;10.068;2023-07-13T01:24:37;7.15;;;2.30;;
39880;SDS011;25554;44.954;10.068;2023-07-13T01:27:05;2.90;;;1.88;;
39880;SDS011;25554;44.954;10.068;2023-07-13T01:29:34;3.65;;;1.65;;
39880;SDS011;25554;44.954;10.068;2023-07-13T01:32:08;3.60;;;2.17;;
39880;SDS011;25554;44.954;10.068;2023-07-13T01:34:36;4.63;;;2.10;;
39880;SDS011;25554;44.954;10.068;2023-07-13T01:37:03;3.92;;;2.10;;
39880;SDS011;25554;44.954;10.068;2023-07-13T01:39:30;3.97;;;2.03;;
39880;SDS011;25554;44.954;10.068;2023-07-13T01:41:57;4.00;;;1.98;;
39880;SDS011;25554;44.954;10.068;2023-07-13T01:44:24;3.45;;;1.60;;
39880;SDS011;25554;44.954;10.068;2023-07-13T01:46:51;4.97;;;1.90;;
39880;SDS011;25554;44.954;10.068;2023-07-13T01:49:18;3.35;;;1.60;;
39880;SDS011;25554;44.954;10.068;2023-07-13T01:51:44;5.20;;;3.00;;
39880;SDS011;25554;44.954;10.068;2023-07-13T01:54:10;5.07;;;3.17;;
39880;SDS011;25554;44.954;10.068;2023-07-13T01:56:37;5.97;;;2.30;;
39880;SDS011;25554;44.954;10.068;2023-07-13T01:59:03;5.72;;;2.53;;
39880;SDS011;25554;44.954;10.068;2023-07-13T02:01:29;5.10;;;2.40;;
39880;SDS011;25554;44.954;10.068;2023-07-13T02:03:55;5.40;;;2.83;;
39880;SDS011;25554;44.954;10.068;2023-07-13T02:08:48;7.15;;;2.70;;
39880;SDS011;25554;44.954;10.068;2023-07-13T02:11:14;4.63;;;3.00;;
39880;SDS011;25554;44.954;10.068;2023-07-13T02:16:07;6.80;;;2.70;;
39880;SDS011;25554;44.954;10.068;2023-07-13T02:18:33;8.07;;;3.22;;
39880;SDS011;25554;44.954;10.068;2023-07-13T02:20:59;8.02;;;3.00;;
39880;SDS011;25554;44.954;10.068;2023-07-13T02:23:25;5.00;;;3.10;;
39880;SDS011;25554;44.954;10.068;2023-07-13T02:25:58;5.10;;;2.88;;
39880;SDS011;25554;44.954;10.068;2023-07-13T02:28:26;5.13;;;3.00;;
39880;SDS011;25554;44.954;10.068;2023-07-13T02:30:53;5.07;;;2.67;;
39880;SDS011;25554;44.954;10.068;2023-07-13T02:33:19;8.18;;;3.22;;
39880;SDS011;25554;44.954;10.068;2023-07-13T02:35:47;5.80;;;3.70;;
39880;SDS011;25554;44.954;10.068;2023-07-13T02:38:14;23.13;;;3.97;;
39880;SDS011;25554;44.954;10.068;2023-07-13T02:40:40;2.92;;;2.58;;
39880;SDS011;25554;44.954;10.068;2023-07-13T02:43:06;5.40;;;3.15;;
39880;SDS011;25554;44.954;10.068;2023-07-13T02:45:32;4.97;;;3.15;;
39880;SDS011;25554;44.954;10.068;2023-07-13T02:47:59;5.60;;;3.00;;
39880;SDS011;25554;44.954;10.068;2023-07-13T02:50:25;6.78;;;2.92;;
39880;SDS011;25554;44.954;10.068;2023-07-13T02:52:52;4.85;;;2.25;;
39880;SDS011;25554;44.954;10.068;2023-07-13T02:55:18;6.10;;;3.30;;
39880;SDS011;25554;44.954;10.068;2023-07-13T02:57:44;6.75;;;3.05;;
39880;SDS011;25554;44.954;10.068;2023-07-13T03:02:37;5.03;;;2.90;;
39880;SDS011;25554;44.954;10.068;2023-07-13T03:05:04;5.55;;;2.80;;
39880;SDS011;25554;44.954;10.068;2023-07-13T03:07:31;6.35;;;2.65;;
39880;SDS011;25554;44.954;10.068;2023-07-13T03:09:58;5.80;;;2.90;;
39880;SDS011;25554;44.954;10.068;2023-07-13T03:12:33;7.63;;;3.08;;
39880;SDS011;25554;44.954;10.068;2023-07-13T03:15:01;8.75;;;4.25;;
39880;SDS011;25554;44.954;10.068;2023-07-13T03:17:28;10.25;;;4.45;;
39880;SDS011;25554;44.954;10.068;2023-07-13T03:22:21;8.57;;;4.18;;
39880;SDS011;25554;44.954;10.068;2023-07-13T03:27:15;7.82;;;5.30;;
39880;SDS011;25554;44.954;10.068;2023-07-13T03:29:43;7.18;;;4.88;;
39880;SDS011;25554;44.954;10.068;2023-07-13T03:32:11;11.57;;;5.35;;
39880;SDS011;25554;44.954;10.068;2023-07-13T03:34:38;8.93;;;5.47;;
39880;SDS011;25554;44.954;10.068;2023-07-13T03:37:05;8.35;;;5.80;;
39880;SDS011;25554;44.954;10.068;2023-07-13T03:39:31;10.13;;;5.10;;
39880;SDS011;25554;44.954;10.068;2023-07-13T03:41:58;7.43;;;4.75;;
39880;SDS011;25554;44.954;10.068;2023-07-13T03:44:24;7.85;;;5.43;;
39880;SDS011;25554;44.954;10.068;2023-07-13T03:46:54;9.63;;;5.43;;
39880;SDS011;25554;44.954;10.068;2023-07-13T03:49:20;7.53;;;4.78;;
39880;SDS011;25554;44.954;10.068;2023-07-13T03:51:47;8.73;;;4.60;;
39880;SDS011;25554;44.954;10.068;2023-07-13T03:54:13;6.55;;;5.13;;
39880;SDS011;25554;44.954;10.068;2023-07-13T03:56:39;9.85;;;4.88;;
39880;SDS011;25554;44.954;10.068;2023-07-13T03:59:08;7.28;;;4.85;;
39880;SDS011;25554;44.954;10.068;2023-07-13T04:01:34;11.30;;;5.75;;
39880;SDS011;25554;44.954;10.068;2023-07-13T04:06:27;7.50;;;5.07;;
39880;SDS011;25554;44.954;10.068;2023-07-13T04:08:58;8.43;;;5.10;;
39880;SDS011;25554;44.954;10.068;2023-07-13T04:11:28;8.52;;;5.60;;
39880;SDS011;25554;44.954;10.068;2023-07-13T04:13:57;7.57;;;4.80;;
39880;SDS011;25554;44.954;10.068;2023-07-13T04:16:24;8.70;;;5.03;;
39880;SDS011;25554;44.954;10.068;2023-07-13T04:18:51;6.20;;;4.57;;
39880;SDS011;25554;44.954;10.068;2023-07-13T04:21:25;6.18;;;4.18;;
39880;SDS011;25554;44.954;10.068;2023-07-13T04:23:53;6.15;;;5.20;;
39880;SDS011;25554;44.954;10.068;2023-07-13T04:26:20;7.03;;;4.90;;
39880;SDS011;25554;44.954;10.068;2023-07-13T04:28:48;8.57;;;5.57;;
39880;SDS011;25554;44.954;10.068;2023-07-13T04:31:15;7.40;;;4.25;;
39880;SDS011;25554;44.954;10.068;2023-07-13T04:33:42;5.65;;;3.97;;
39880;SDS011;25554;44.954;10.068;2023-07-13T04:38:35;7.20;;;4.68;;
39880;SDS011;25554;44.954;10.068;2023-07-13T04:41:03;5.50;;;3.25;;
39880;SDS011;25554;44.954;10.068;2023-07-13T04:43:31;6.55;;;3.20;;
39880;SDS011;25554;44.954;10.068;2023-07-13T04:46:04;5.97;;;3.30;;
39880;SDS011;25554;44.954;10.068;2023-07-13T04:48:32;5.22;;;3.00;;
39880;SDS011;25554;44.954;10.068;2023-07-13T04:50:59;4.70;;;3.75;;
39880;SDS011;25554;44.954;10.068;2023-07-13T04:53:27;5.10;;;3.33;;
39880;SDS011;25554;44.954;10.068;2023-07-13T04:55:55;6.53;;;2.88;;
39880;SDS011;25554;44.954;10.068;2023-07-13T04:58:21;7.05;;;3.13;;
39880;SDS011;25554;44.954;10.068;2023-07-13T05:00:48;7.30;;;3.90;;
39880;SDS011;25554;44.954;10.068;2023-07-13T05:03:15;7.32;;;4.35;;
39880;SDS011;25554;44.954;10.068;2023-07-13T05:05:41;6.93;;;4.00;;
39880;SDS011;25554;44.954;10.068;2023-07-13T05:08:08;8.15;;;4.80;;
39880;SDS011;25554;44.954;10.068;2023-07-13T05:13:01;6.45;;;4.72;;
39880;SDS011;25554;44.954;10.068;2023-07-13T05:15:27;6.72;;;3.72;;
39880;SDS011;25554;44.954;10.068;2023-07-13T05:17:53;12.32;;;5.15;;
39880;SDS011;25554;44.954;10.068;2023-07-13T05:20:20;11.07;;;5.15;;
39880;SDS011;25554;44.954;10.068;2023-07-13T05:22:46;8.05;;;4.93;;
39880;SDS011;25554;44.954;10.068;2023-07-13T05:25:12;7.88;;;5.28;;
39880;SDS011;25554;44.954;10.068;2023-07-13T05:27:39;9.73;;;5.20;;
39880;SDS011;25554;44.954;10.068;2023-07-13T05:32:32;11.90;;;5.63;;
39880;SDS011;25554;44.954;10.068;2023-07-13T05:34:59;13.05;;;6.35;;
39880;SDS011;25554;44.954;10.068;2023-07-13T05:37:25;9.82;;;5.32;;
39880;SDS011;25554;44.954;10.068;2023-07-13T05:39:51;9.13;;;5.90;;
39880;SDS011;25554;44.954;10.068;2023-07-13T05:42:17;18.23;;;5.35;;
39880;SDS011;25554;44.954;10.068;2023-07-13T05:47:10;9.63;;;5.28;;
39880;SDS011;25554;44.954;10.068;2023-07-13T05:49:36;8.40;;;5.43;;
39880;SDS011;25554;44.954;10.068;2023-07-13T05:54:29;9.15;;;4.90;;
39880;SDS011;25554;44.954;10.068;2023-07-13T05:59:21;9.52;;;5.18;;
39880;SDS011;25554;44.954;10.068;2023-07-13T06:01:48;7.85;;;5.20;;
39880;SDS011;25554;44.954;10.068;2023-07-13T06:04:15;9.75;;;5.70;;
39880;SDS011;25554;44.954;10.068;2023-07-13T06:06:41;13.18;;;6.22;;
39880;SDS011;25554;44.954;10.068;2023-07-13T06:09:07;9.73;;;5.55;;
39880;SDS011;25554;44.954;10.068;2023-07-13T06:11:33;10.13;;;6.28;;
39880;SDS011;25554;44.954;10.068;2023-07-13T06:14:00;20.25;;;6.93;;
39880;SDS011;25554;44.954;10.068;2023-07-13T06:16:27;13.05;;;6.43;;
39880;SDS011;25554;44.954;10.068;2023-07-13T06:18:53;15.95;;;7.32;;
39880;SDS011;25554;44.954;10.068;2023-07-13T06:21:20;11.25;;;5.35;;
39880;SDS011;25554;44.954;10.068;2023-07-13T06:23:48;10.32;;;6.00;;
39880;SDS011;25554;44.954;10.068;2023-07-13T06:26:16;9.95;;;5.70;;
39880;SDS011;25554;44.954;10.068;2023-07-13T06:28:43;12.27;;;5.70;;
39880;SDS011;25554;44.954;10.068;2023-07-13T06:33:37;11.75;;;5.75;;
39880;SDS011;25554;44.954;10.068;2023-07-13T06:36:04;9.48;;;5.00;;
39880;SDS011;25554;44.954;10.068;2023-07-13T06:38:32;9.43;;;5.32;;
39880;SDS011;25554;44.954;10.068;2023-07-13T06:43:24;10.30;;;4.63;;
39880;SDS011;25554;44.954;10.068;2023-07-13T06:45:51;14.18;;;5.47;;
39880;SDS011;25554;44.954;10.068;2023-07-13T06:48:20;10.57;;;5.25;;
39880;SDS011;25554;44.954;10.068;2023-07-13T06:50:47;10.57;;;5.75;;
39880;SDS011;25554;44.954;10.068;2023-07-13T06:53:15;18.08;;;7.38;;
39880;SDS011;25554;44.954;10.068;2023-07-13T06:55:43;9.57;;;5.18;;
39880;SDS011;25554;44.954;10.068;2023-07-13T06:58:10;16.88;;;5.68;;
39880;SDS011;25554;44.954;10.068;2023-07-13T07:00:37;10.00;;;5.50;;
39880;SDS011;25554;44.954;10.068;2023-07-13T07:03:05;13.73;;;5.15;;
39880;SDS011;25554;44.954;10.068;2023-07-13T07:05:32;13.20;;;5.85;;
39880;SDS011;25554;44.954;10.068;2023-07-13T07:07:58;10.55;;;5.50;;
39880;SDS011;25554;44.954;10.068;2023-07-13T07:10:25;9.75;;;5.10;;
39880;SDS011;25554;44.954;10.068;2023-07-13T07:12:51;10.18;;;5.43;;
39880;SDS011;25554;44.954;10.068;2023-07-13T07:15:18;13.23;;;5.78;;
39880;SDS011;25554;44.954;10.068;2023-07-13T07:17:44;20.70;;;9.20;;
39880;SDS011;25554;44.954;10.068;2023-07-13T07:22:37;15.27;;;5.80;;
39880;SDS011;25554;44.954;10.068;2023-07-13T07:25:03;9.18;;;5.10;;
39880;SDS011;25554;44.954;10.068;2023-07-13T07:27:31;10.32;;;4.95;;
39880;SDS011;25554;44.954;10.068;2023-07-13T07:29:59;10.55;;;4.90;;
39880;SDS011;25554;44.954;10.068;2023-07-13T07:32:25;16.10;;;5.78;;
39880;SDS011;25554;44.954;10.068;2023-07-13T07:34:54;16.50;;;5.55;;
39880;SDS011;25554;44.954;10.068;2023-07-13T07:37:20;6.82;;;4.40;;
39880;SDS011;25554;44.954;10.068;2023-07-13T07:42:13;13.48;;;5.63;;
39880;SDS011;25554;44.954;10.068;2023-07-13T07:47:06;13.77;;;5.80;;
39880;SDS011;25554;44.954;10.068;2023-07-13T07:49:33;10.70;;;6.18;;
39880;SDS011;25554;44.954;10.068;2023-07-13T07:51:59;14.32;;;6.30;;
39880;SDS011;25554;44.954;10.068;2023-07-13T07:54:26;10.32;;;5.53;;
39880;SDS011;25554;44.954;10.068;2023-07-13T07:56:52;10.48;;;5.90;;
39880;SDS011;25554;44.954;10.068;2023-07-13T07:59:18;22.20;;;6.32;;
39880;SDS011;25554;44.954;10.068;2023-07-13T08:04:13;13.07;;;6.43;;
39880;SDS011;25554;44.954;10.068;2023-07-13T08:09:05;11.57;;;5.88;;
39880;SDS011;25554;44.954;10.068;2023-07-13T08:11:33;10.27;;;5.40;;
39880;SDS011;25554;44.954;10.068;2023-07-13T08:14:00;9.77;;;5.28;;
39880;SDS011;25554;44.954;10.068;2023-07-13T08:16:26;13.55;;;5.70;;
39880;SDS011;25554;44.954;10.068;2023-07-13T08:18:53;12.15;;;5.70;;
39880;SDS011;25554;44.954;10.068;2023-07-13T08:21:20;15.93;;;5.95;;
39880;SDS011;25554;44.954;10.068;2023-07-13T08:23:47;13.38;;;4.93;;
39880;SDS011;25554;44.954;10.068;2023-07-13T08:26:14;11.93;;;5.28;;
39880;SDS011;25554;44.954;10.068;2023-07-13T08:28:44;13.85;;;5.68;;
39880;SDS011;25554;44.954;10.068;2023-07-13T08:33:36;10.65;;;5.38;;
39880;SDS011;25554;44.954;10.068;2023-07-13T08:36:03;8.25;;;4.93;;
39880;SDS011;25554;44.954;10.068;2023-07-13T08:38:30;10.65;;;4.78;;
39880;SDS011;25554;44.954;10.068;2023-07-13T08:43:28;13.02;;;4.93;;
39880;SDS011;25554;44.954;10.068;2023-07-13T08:48:50;9.07;;;4.47;;
39880;SDS011;25554;44.954;10.068;2023-07-13T08:54:01;10.80;;;4.78;;
39880;SDS011;25554;44.954;10.068;2023-07-13T08:56:38;9.73;;;4.38;;
39880;SDS011;25554;44.954;10.068;2023-07-13T08:59:15;9.82;;;4.20;;
39880;SDS011;25554;44.954;10.068;2023-07-13T09:04:40;9.07;;;4.72;;
39880;SDS011;25554;44.954;10.068;2023-07-13T09:07:19;10.13;;;4.00;;
39880;SDS011;25554;44.954;10.068;2023-07-13T09:09:55;10.07;;;4.88;;
39880;SDS011;25554;44.954;10.068;2023-07-13T09:15:32;39.28;;;7.63;;
39880;SDS011;25554;44.954;10.068;2023-07-13T09:18:04;12.25;;;5.10;;
39880;SDS011;25554;44.954;10.068;2023-07-13T09:20:40;10.98;;;4.90;;
39880;SDS011;25554;44.954;10.068;2023-07-13T09:23:29;11.02;;;5.18;;
39880;SDS011;25554;44.954;10.068;2023-07-13T09:26:00;9.38;;;5.32;;
39880;SDS011;25554;44.954;10.068;2023-07-13T09:28:45;7.75;;;4.18;;
39880;SDS011;25554;44.954;10.068;2023-07-13T09:31:15;10.07;;;5.22;;
39880;SDS011;25554;44.954;10.068;2023-07-13T09:33:44;9.07;;;4.10;;
39880;SDS011;25554;44.954;10.068;2023-07-13T09:36:28;10.38;;;4.63;;
39880;SDS011;25554;44.954;10.068;2023-07-13T09:46:21;9.98;;;4.40;;
39880;SDS011;25554;44.954;10.068;2023-07-13T09:56:18;13.48;;;5.57;;
39880;SDS011;25554;44.954;10.068;2023-07-13T09:58:52;10.25;;;4.75;;
39880;SDS011;25554;44.954;10.068;2023-07-13T10:05:21;9.45;;;4.78;;
39880;SDS011;25554;44.954;10.068;2023-07-13T10:07:52;10.63;;;5.20;;
39880;SDS011;25554;44.954;10.068;2023-07-13T10:10:24;9.05;;;5.68;;
39880;SDS011;25554;44.954;10.068;2023-07-13T10:12:50;10.23;;;5.50;;
39880;SDS011;25554;44.954;10.068;2023-07-13T10:15:18;14.35;;;5.22;;
39880;SDS011;25554;44.954;10.068;2023-07-13T10:17:47;7.97;;;4.65;;
39880;SDS011;25554;44.954;10.068;2023-07-13T10:28:19;10.30;;;5.03;;
39880;SDS011;25554;44.954;10.068;2023-07-13T10:30:56;6.88;;;4.22;;
39880;SDS011;25554;44.954;10.068;2023-07-13T10:33:31;8.73;;;5.30;;
39880;SDS011;25554;44.954;10.068;2023-07-13T10:41:55;10.60;;;5.22;;
39880;SDS011;25554;44.954;10.068;2023-07-13T10:44:29;9.00;;;4.70;;
39880;SDS011;25554;44.954;10.068;2023-07-13T10:47:06;10.23;;;4.53;;
39880;SDS011;25554;44.954;10.068;2023-07-13T10:49:37;8.02;;;4.57;;
39880;SDS011;25554;44.954;10.068;2023-07-13T10:52:06;11.63;;;3.63;;
39880;SDS011;25554;44.954;10.068;2023-07-13T10:54:52;9.82;;;5.95;;
39880;SDS011;25554;44.954;10.068;2023-07-13T10:57:20;7.70;;;5.47;;
39880;SDS011;25554;44.954;10.068;2023-07-13T10:59:48;6.55;;;4.05;;
39880;SDS011;25554;44.954;10.068;2023-07-13T11:02:34;10.82;;;5.38;;
39880;SDS011;25554;44.954;10.068;2023-07-13T11:05:13;7.20;;;5.00;;
39880;SDS011;25554;44.954;10.068;2023-07-13T11:08:04;9.73;;;4.60;;
39880;SDS011;25554;44.954;10.068;2023-07-13T11:10:47;6.95;;;3.80;;
39880;SDS011;25554;44.954;10.068;2023-07-13T11:16:14;9.55;;;4.03;;
39880;SDS011;25554;44.954;10.068;2023-07-13T11:22:09;4.43;;;3.38;;
39880;SDS011;25554;44.954;10.068;2023-07-13T11:24:48;4.15;;;3.47;;
39880;SDS011;25554;44.954;10.068;2023-07-13T11:27:44;6.93;;;3.22;;
39880;SDS011;25554;44.954;10.068;2023-07-13T11:30:25;4.32;;;3.05;;
39880;SDS011;25554;44.954;10.068;2023-07-13T11:35:33;5.30;;;3.30;;
39880;SDS011;25554;44.954;10.068;2023-07-13T11:38:02;12.00;;;4.22;;
39880;SDS011;25554;44.954;10.068;2023-07-13T11:40:37;6.72;;;3.60;;
39880;SDS011;25554;44.954;10.068;2023-07-13T11:47:30;10.90;;;5.43;;
39880;SDS011;25554;44.954;10.068;2023-07-13T11:53:45;9.63;;;4.88;;
39880;SDS011;25554;44.954;10.068;2023-07-13T11:56:34;7.88;;;4.65;;
39880;SDS011;25554;44.954;10.068;2023-07-13T12:03:15;10.52;;;4.85;;
39880;SDS011;25554;44.954;10.068;2023-07-13T12:06:33;13.15;;;4.90;;
39880;SDS011;25554;44.954;10.068;2023-07-13T12:09:13;8.45;;;3.53;;
39880;SDS011;25554;44.954;10.068;2023-07-13T12:11:44;8.13;;;4.13;;
39880;SDS011;25554;44.954;10.068;2023-07-13T12:14:16;10.70;;;6.38;;
39880;SDS011;25554;44.954;10.068;2023-07-13T12:16:44;9.23;;;5.53;;
39880;SDS011;25554;44.954;10.068;2023-07-13T12:19:30;10.68;;;6.22;;
39880;SDS011;25554;44.954;10.068;2023-07-13T12:21:57;11.90;;;5.90;;
39880;SDS011;25554;44.954;10.068;2023-07-13T12:24:25;9.80;;;5.15;;
39880;SDS011;25554;44.954;10.068;2023-07-13T12:27:00;10.15;;;4.90;;
39880;SDS011;25554;44.954;10.068;2023-07-13T12:29:32;14.73;;;6.20;;
39880;SDS011;25554;44.954;10.068;2023-07-13T12:31:59;15.07;;;6.90;;
39880;SDS011;25554;44.954;10.068;2023-07-13T14:01:22;9.45;;;4.80;;
39880;SDS011;25554;44.954;10.068;2023-07-13T14:03:50;11.00;;;5.40;;
39880;SDS011;25554;44.954;10.068;2023-07-13T14:06:19;12.00;;;4.63;;
39880;SDS011;25554;44.954;10.068;2023-07-13T14:08:46;12.45;;;4.47;;
39880;SDS011;25554;44.954;10.068;2023-07-13T14:11:16;9.93;;;4.57;;
39880;SDS011;25554;44.954;10.068;2023-07-13T14:13:49;15.88;;;5.20;;
39880;SDS011;25554;44.954;10.068;2023-07-13T14:16:25;14.00;;;7.97;;
39880;SDS011;25554;44.954;10.068;2023-07-13T14:18:55;14.52;;;7.30;;
39880;SDS011;25554;44.954;10.068;2023-07-13T14:21:24;13.15;;;5.00;;
39880;SDS011;25554;44.954;10.068;2023-07-13T14:23:50;12.02;;;4.75;;
39880;SDS011;25554;44.954;10.068;2023-07-13T14:26:18;9.00;;;4.60;;
39880;SDS011;25554;44.954;10.068;2023-07-13T14:28:52;15.10;;;4.80;;
39880;SDS011;25554;44.954;10.068;2023-07-13T14:31:21;13.30;;;5.38;;
39880;SDS011;25554;44.954;10.068;2023-07-13T14:33:48;9.32;;;4.57;;
39880;SDS011;25554;44.954;10.068;2023-07-13T14:38:56;12.55;;;4.60;;
39880;SDS011;25554;44.954;10.068;2023-07-13T14:41:24;8.00;;;4.93;;
39880;SDS011;25554;44.954;10.068;2023-07-13T14:43:51;14.35;;;7.22;;
39880;SDS011;25554;44.954;10.068;2023-07-13T14:48:48;10.57;;;4.38;;
39880;SDS011;25554;44.954;10.068;2023-07-13T15:22:11;12.38;;;4.90;;
39880;SDS011;25554;44.954;10.068;2023-07-13T15:24:57;9.38;;;4.50;;
39880;SDS011;25554;44.954;10.068;2023-07-13T15:31:29;14.25;;;5.18;;
39880;SDS011;25554;44.954;10.068;2023-07-13T15:34:12;11.32;;;4.78;;
39880;SDS011;25554;44.954;10.068;2023-07-13T15:36:42;15.98;;;4.78;;
39880;SDS011;25554;44.954;10.068;2023-07-13T15:39:16;9.93;;;4.55;;
39880;SDS011;25554;44.954;10.068;2023-07-13T15:41:47;11.70;;;4.82;;
39880;SDS011;25554;44.954;10.068;2023-07-13T15:44:28;10.82;;;4.35;;
39880;SDS011;25554;44.954;10.068;2023-07-13T15:46:56;15.48;;;4.45;;
39880;SDS011;25554;44.954;10.068;2023-07-13T15:52:17;10.73;;;4.88;;
39880;SDS011;25554;44.954;10.068;2023-07-13T15:54:48;10.82;;;4.60;;
39880;SDS011;25554;44.954;10.068;2023-07-13T15:57:14;12.30;;;4.65;;
39880;SDS011;25554;44.954;10.068;2023-07-13T15:59:43;11.43;;;3.83;;
39880;SDS011;25554;44.954;10.068;2023-07-13T16:02:14;8.73;;;3.80;;
39880;SDS011;25554;44.954;10.068;2023-07-13T16:04:43;6.97;;;4.25;;
39880;SDS011;25554;44.954;10.068;2023-07-13T16:07:14;6.90;;;4.13;;
39880;SDS011;25554;44.954;10.068;2023-07-13T16:09:50;9.02;;;3.83;;
39880;SDS011;25554;44.954;10.068;2023-07-13T16:12:17;12.45;;;4.20;;
39880;SDS011;25554;44.954;10.068;2023-07-13T16:14:43;14.95;;;4.80;;
39880;SDS011;25554;44.954;10.068;2023-07-13T16:17:10;6.47;;;3.33;;
39880;SDS011;25554;44.954;10.068;2023-07-13T16:19:40;7.88;;;3.78;;
39880;SDS011;25554;44.954;10.068;2023-07-13T16:22:13;9.23;;;4.10;;
39880;SDS011;25554;44.954;10.068;2023-07-13T16:24:41;13.02;;;3.97;;
39880;SDS011;25554;44.954;10.068;2023-07-13T16:27:11;8.05;;;3.90;;
39880;SDS011;25554;44.954;10.068;2023-07-13T16:29:38;7.65;;;3.65;;
39880;SDS011;25554;44.954;10.068;2023-07-13T16:32:13;12.73;;;3.70;;
39880;SDS011;25554;44.954;10.068;2023-07-13T16:34:41;9.95;;;4.38;;
39880;SDS011;25554;44.954;10.068;2023-07-13T16:37:16;12.55;;;4.18;;
39880;SDS011;25554;44.954;10.068;2023-07-13T16:39:52;10.25;;;3.60;;
39880;SDS011;25554;44.954;10.068;2023-07-13T16:42:21;7.38;;;3.70;;
39880;SDS011;25554;44.954;10.068;2023-07-13T16:44:47;11.45;;;4.30;;
39880;SDS011;25554;44.954;10.068;2023-07-13T16:47:15;9.30;;;4.07;;
39880;SDS011;25554;44.954;10.068;2023-07-13T16:49:43;9.00;;;4.50;;
39880;SDS011;25554;44.954;10.068;2023-07-13T16:52:11;10.23;;;4.30;;
39880;SDS011;25554;44.954;10.068;2023-07-13T16:54:39;7.45;;;3.67;;
39880;SDS011;25554;44.954;10.068;2023-07-13T16:57:15;10.98;;;4.93;;
39880;SDS011;25554;44.954;10.068;2023-07-13T16:59:44;9.20;;;4.63;;
39880;SDS011;25554;44.954;10.068;2023-07-13T17:04:49;10.13;;;3.85;;
39880;SDS011;25554;44.954;10.068;2023-07-13T17:07:16;10.70;;;4.22;;
39880;SDS011;25554;44.954;10.068;2023-07-13T17:09:46;7.22;;;4.05;;
39880;SDS011;25554;44.954;10.068;2023-07-13T17:12:13;9.55;;;4.63;;
39880;SDS011;25554;44.954;10.068;2023-07-13T17:14:41;12.00;;;4.40;;
39880;SDS011;25554;44.954;10.068;2023-07-13T17:17:13;12.95;;;5.38;;
39880;SDS011;25554;44.954;10.068;2023-07-13T17:19:47;10.48;;;5.03;;
39880;SDS011;25554;44.954;10.068;2023-07-13T17:25:00;10.13;;;4.50;;
39880;SDS011;25554;44.954;10.068;2023-07-13T17:27:33;11.63;;;4.60;;
39880;SDS011;25554;44.954;10.068;2023-07-13T17:31:03;10.18;;;4.40;;
39880;SDS011;25554;44.954;10.068;2023-07-13T17:33:37;12.50;;;4.80;;
39880;SDS011;25554;44.954;10.068;2023-07-13T17:36:08;8.95;;;4.07;;
39880;SDS011;25554;44.954;10.068;2023-07-13T17:41:12;11.90;;;4.38;;
39880;SDS011;25554;44.954;10.068;2023-07-13T17:43:43;14.57;;;5.22;;
39880;SDS011;25554;44.954;10.068;2023-07-13T17:46:21;15.63;;;4.82;;
39880;SDS011;25554;44.954;10.068;2023-07-13T17:48:56;12.68;;;4.70;;
39880;SDS011;25554;44.954;10.068;2023-07-13T17:51:23;11.45;;;4.47;;
39880;SDS011;25554;44.954;10.068;2023-07-13T17:53:53;8.93;;;4.50;;
39880;SDS011;25554;44.954;10.068;2023-07-13T17:56:21;9.18;;;5.03;;
39880;SDS011;25554;44.954;10.068;2023-07-13T17:58:50;10.75;;;5.07;;
39880;SDS011;25554;44.954;10.068;2023-07-13T18:01:18;16.58;;;5.00;;
39880;SDS011;25554;44.954;10.068;2023-07-13T18:03:47;9.30;;;4.72;;
39880;SDS011;25554;44.954;10.068;2023-07-13T18:06:26;7.82;;;4.47;;
39880;SDS011;25554;44.954;10.068;2023-07-13T18:08:56;13.23;;;5.05;;
39880;SDS011;25554;44.954;10.068;2023-07-13T18:11:24;15.65;;;6.05;;
39880;SDS011;25554;44.954;10.068;2023-07-13T18:13:52;13.10;;;4.72;;
39880;SDS011;25554;44.954;10.068;2023-07-13T18:16:25;15.30;;;5.90;;
39880;SDS011;25554;44.954;10.068;2023-07-13T18:18:57;15.23;;;6.47;;
39880;SDS011;25554;44.954;10.068;2023-07-13T18:21:26;11.55;;;5.38;;
39880;SDS011;25554;44.954;10.068;2023-07-13T18:23:53;13.60;;;6.18;;
39880;SDS011;25554;44.954;10.068;2023-07-13T18:26:20;11.27;;;5.88;;
39880;SDS011;25554;44.954;10.068;2023-07-13T18:28:46;9.80;;;6.00;;
39880;SDS011;25554;44.954;10.068;2023-07-13T18:31:14;11.48;;;5.78;;
39880;SDS011;25554;44.954;10.068;2023-07-13T18:33:46;13.85;;;6.00;;
39880;SDS011;25554;44.954;10.068;2023-07-13T18:36:18;10.80;;;6.18;;
39880;SDS011;25554;44.954;10.068;2023-07-13T18:38:45;11.35;;;6.78;;
39880;SDS011;25554;44.954;10.068;2023-07-13T18:41:13;26.73;;;6.95;;
39880;SDS011;25554;44.954;10.068;2023-07-13T18:43:49;13.77;;;7.20;;
39880;SDS011;25554;44.954;10.068;2023-07-13T18:46:24;11.80;;;5.65;;
39880;SDS011;25554;44.954;10.068;2023-07-13T18:49:22;12.77;;;5.60;;
39880;SDS011;25554;44.954;10.068;2023-07-13T18:55:21;13.63;;;6.93;;
39880;SDS011;25554;44.954;10.068;2023-07-13T18:58:02;10.05;;;6.10;;
39880;SDS011;25554;44.954;10.068;2023-07-13T19:01:22;14.70;;;5.45;;
39880;SDS011;25554;44.954;10.068;2023-07-13T19:07:22;13.63;;;6.50;;
39880;SDS011;25554;44.954;10.068;2023-07-13T19:10:01;13.02;;;6.43;;
39880;SDS011;25554;44.954;10.068;2023-07-13T19:12:38;18.23;;;6.87;;
39880;SDS011;25554;44.954;10.068;2023-07-13T19:15:34;13.88;;;6.72;;
39880;SDS011;25554;44.954;10.068;2023-07-13T19:21:45;24.02;;;8.00;;
39880;SDS011;25554;44.954;10.068;2023-07-13T19:24:33;14.90;;;6.97;;
39880;SDS011;25554;44.954;10.068;2023-07-13T19:27:12;17.10;;;7.55;;
39880;SDS011;25554;44.954;10.068;2023-07-13T19:33:15;26.73;;;8.35;;